Time;durP1;ratioP1;P1;durP2;ratioP2;P2;SDS_P1;SDS_P2;PMS_P1;PMS_P2;Temp;Humidity;BMP_temperature;BMP_pressure;BME280_temperature;BME280_humidity;BME280_pressure;Samples;Min_cycle;Max_cycle;Signal;HPM_P1;HPM_P2
2021/12/30 00:01:56;;;;;;;1.02;0.35;;;;;;;13.78;87.88;99797.00;6267369;22;20018;-75
2021/12/30 00:04:22;;;;;;;1.75;0.32;;;;;;;13.82;87.96;99804.63;6283756;22;20007;-78
2021/12/30 00:06:48;;;;;;;4.43;0.85;;;;;;;13.86;87.69;99789.19;6248373;22;20018;-75
2021/12/30 00:09:19;;;;;;;1.73;0.73;;;;;;;13.83;87.97;99784.25;6247306;22;20008;-77
2021/12/30 00:11:45;;;;;;;1.52;0.43;;;;;;;13.85;87.38;99795.78;6275292;22;20349;-76
2021/12/30 00:14:13;;;;;;;0.75;0.30;;;;;;;13.76;87.52;99777.25;6274708;22;20010;-76
2021/12/30 00:16:39;;;;;;;0.80;0.40;;;;;;;13.81;87.71;99792.00;6275811;22;20026;-77
2021/12/30 00:19:05;;;;;;;4.75;0.57;;;;;;;13.68;87.69;99793.59;6273519;22;20004;-78
2021/12/30 00:21:33;;;;;;;3.95;0.47;;;;;;;13.69;87.73;99787.81;6218512;22;20007;-74
2021/12/30 00:24:01;;;;;;;2.83;0.50;;;;;;;13.65;87.74;99805.22;6243492;22;20146;-74
2021/12/30 00:26:27;;;;;;;1.25;0.38;;;;;;;13.74;87.72;99803.38;6269862;22;20008;-75
2021/12/30 00:28:55;;;;;;;2.78;0.20;;;;;;;13.68;87.66;99780.72;6271732;22;20022;-74
2021/12/30 00:31:20;;;;;;;1.20;0.52;;;;;;;13.72;87.45;99783.66;6243166;22;20082;-72
2021/12/30 00:33:46;;;;;;;5.53;0.50;;;;;;;13.78;87.08;99788.75;6270860;22;20043;-73
2021/12/30 00:36:14;;;;;;;4.68;0.50;;;;;;;13.68;87.24;99788.13;6243617;22;20007;-73
2021/12/30 00:38:43;;;;;;;3.67;0.50;;;;;;;13.65;87.37;99803.25;6243920;22;20019;-74
2021/12/30 00:41:09;;;;;;;0.57;0.20;;;;;;;13.66;87.14;99809.59;6269375;22;20003;-72
2021/12/30 00:43:36;;;;;;;1.00;0.20;;;;;;;13.70;86.98;99789.44;6271097;22;19995;-74
2021/12/30 00:46:02;;;;;;;1.83;0.40;;;;;;;13.65;86.83;99788.72;6269296;22;20014;-73
2021/12/30 00:48:27;;;;;;;0.82;0.22;;;;;;;13.65;86.85;99811.50;6269696;22;20011;-74
2021/12/30 00:50:55;;;;;;;1.25;0.40;;;;;;;13.68;86.97;99791.69;6271078;22;20007;-74
2021/12/30 00:53:21;;;;;;;0.22;0.10;;;;;;;13.68;87.00;99790.88;6216944;22;20077;-72
2021/12/30 00:55:47;;;;;;;0.73;0.17;;;;;;;13.70;86.67;99800.44;6243588;22;20015;-74
2021/12/30 00:58:13;;;;;;;2.75;0.30;;;;;;;13.72;86.67;99806.44;6243095;22;20054;-74
2021/12/30 01:00:41;;;;;;;1.30;0.25;;;;;;;13.74;86.60;99801.47;6269281;22;20008;-74
2021/12/30 01:03:07;;;;;;;1.20;0.30;;;;;;;13.73;86.64;99802.56;6243063;22;20003;-74
2021/12/30 01:05:33;;;;;;;0.45;0.22;;;;;;;13.67;86.70;99803.78;6268641;22;20012;-75
2021/12/30 01:07:59;;;;;;;0.30;0.10;;;;;;;13.73;86.31;99799.84;6244004;22;20441;-74
2021/12/30 01:10:26;;;;;;;0.50;0.15;;;;;;;13.76;85.97;99832.19;6270659;22;20003;-74
2021/12/30 01:12:54;;;;;;;2.53;0.40;;;;;;;13.79;86.09;99820.59;6272272;22;20038;-75
2021/12/30 01:15:30;;;;;;;0.73;0.22;;;;;;;13.75;86.41;99808.56;6271170;22;20003;-74
2021/12/30 01:18:19;;;;;;;0.75;0.20;;;;;;;13.79;86.23;99817.03;6270214;22;20457;-75
2021/12/30 01:20:41;;;;;;;0.65;0.22;;;;;;;13.76;86.17;99821.22;6271117;22;20083;-74
2021/12/30 01:23:06;;;;;;;1.92;0.30;;;;;;;13.73;86.37;99860.28;6271471;22;20592;-73
2021/12/30 01:25:32;;;;;;;0.77;0.30;;;;;;;13.76;86.50;99832.19;6269454;22;20008;-74
2021/12/30 01:27:57;;;;;;;0.70;0.20;;;;;;;13.77;86.38;99839.34;6268101;22;20060;-73
2021/12/30 01:30:22;;;;;;;1.33;0.30;;;;;;;13.61;86.47;99807.75;6218764;22;20430;-73
2021/12/30 01:32:55;;;;;;;2.22;0.20;;;;;;;13.61;87.36;99826.97;6245769;22;20015;-76
2021/12/30 01:35:25;;;;;;;0.70;0.35;;;;;;;13.49;87.26;99815.63;6223066;22;20097;-75
2021/12/30 01:37:51;;;;;;;3.63;0.20;;;;;;;13.43;88.07;99818.50;6246534;22;20035;-76
2021/12/30 01:40:18;;;;;;;0.90;0.20;;;;;;;13.51;87.82;99835.41;6223360;22;20035;-74
2021/12/30 01:42:44;;;;;;;0.75;0.30;;;;;;;13.43;87.98;99807.50;6274748;22;20003;-73
2021/12/30 01:45:18;;;;;;;1.67;0.20;;;;;;;13.49;87.57;99826.63;6274148;22;20000;-75
2021/12/30 01:47:54;;;;;;;1.33;0.20;;;;;;;13.56;88.01;99838.03;6247995;22;20039;-74
2021/12/30 01:50:22;;;;;;;1.10;0.20;;;;;;;13.50;87.78;99836.50;6244507;22;20015;-73
2021/12/30 01:52:48;;;;;;;2.33;0.30;;;;;;;13.53;88.19;99833.16;6244266;22;20448;-75
2021/12/30 01:55:15;;;;;;;0.22;0.10;;;;;;;13.53;88.25;99830.41;6243753;22;20123;-75
2021/12/30 01:57:43;;;;;;;0.43;0.20;;;;;;;13.53;87.82;99833.16;6219195;22;20165;-75
2021/12/30 02:00:13;;;;;;;0.65;0.15;;;;;;;13.57;87.93;99845.97;6243163;22;20035;-74
2021/12/30 02:02:39;;;;;;;0.25;0.20;;;;;;;13.59;87.86;99815.47;6273372;22;20004;-73
2021/12/30 02:05:05;;;;;;;0.13;0.10;;;;;;;13.67;87.13;99845.00;6220251;22;20081;-74
2021/12/30 02:07:31;;;;;;;1.50;0.20;;;;;;;13.65;87.44;99847.22;6241220;22;20083;-74
2021/12/30 02:10:01;;;;;;;1.00;0.20;;;;;;;13.61;87.36;99840.72;6245815;22;20035;-75
2021/12/30 02:12:27;;;;;;;2.13;0.35;;;;;;;13.64;87.20;99853.84;6219641;22;20016;-75
2021/12/30 02:14:56;;;;;;;1.00;0.20;;;;;;;13.69;87.14;99851.00;6272925;22;20054;-77
2021/12/30 02:17:21;;;;;;;0.80;0.20;;;;;;;13.71;86.63;99839.72;6220498;22;20414;-75
2021/12/30 02:19:47;;;;;;;0.45;0.10;;;;;;;13.81;86.50;99827.72;6245994;22;20015;-76
2021/12/30 02:22:13;;;;;;;2.30;0.30;;;;;;;13.78;85.49;99835.47;6247916;22;20011;-76
2021/12/30 02:24:49;;;;;;;3.47;0.45;;;;;;;13.86;85.72;99839.44;6273163;22;19999;-74
2021/12/30 02:30:37;;;;;;;1.23;0.88;;;;;;;13.89;85.48;99849.03;6271452;22;20499;-73
2021/12/30 02:33:03;;;;;;;1.40;0.35;;;;;;;13.86;85.41;99850.44;6242473;22;20453;-72
2021/12/30 02:35:29;;;;;;;2.00;0.90;;;;;;;13.87;85.25;99860.34;6243075;22;20003;-75
2021/12/30 02:37:55;;;;;;;2.03;0.85;;;;;;;13.89;84.87;99846.28;6241864;22;20047;-73
2021/12/30 02:40:45;;;;;;;7.68;1.00;;;;;;;13.89;84.64;99851.78;6246375;22;20007;-73
2021/12/30 02:43:15;;;;;;;6.80;0.88;;;;;;;13.83;85.09;99852.97;6243778;22;20944;-74
2021/12/30 02:45:42;;;;;;;10.75;1.08;;;;;;;13.89;84.81;99882.00;6272484;22;20003;-73
2021/12/30 02:48:13;;;;;;;5.35;1.20;;;;;;;13.79;84.85;99869.25;6270006;22;20029;-73
2021/12/30 02:50:41;;;;;;;4.35;1.00;;;;;;;13.82;84.81;99856.84;6271448;22;20570;-75
2021/12/30 02:53:09;;;;;;;6.25;1.65;;;;;;;13.79;84.63;99875.56;6218889;22;20090;-72
2021/12/30 02:55:34;;;;;;;6.85;1.42;;;;;;;13.90;84.58;99887.22;6244746;22;20492;-73
2021/12/30 02:58:00;;;;;;;2.25;0.88;;;;;;;13.86;84.32;99893.63;6240145;22;20059;-73
2021/12/30 03:00:28;;;;;;;5.53;1.35;;;;;;;13.90;84.29;99878.97;6246564;22;20318;-74
2021/12/30 03:02:54;;;;;;;9.52;1.63;;;;;;;13.87;84.27;99895.22;6267376;22;20015;-73
2021/12/30 03:05:31;;;;;;;9.25;2.15;;;;;;;13.85;84.50;99875.47;6269375;22;20003;-74
2021/12/30 03:07:56;;;;;;;18.67;2.50;;;;;;;13.93;84.12;99889.34;6276804;22;20426;-74
2021/12/30 03:10:35;;;;;;;;;;;;;;;;;;;;;
2021/12/30 03:13:07;;;;;;;5.88;1.70;;;;;;;13.87;84.30;99937.28;6283034;22;20102;-74
2021/12/30 03:15:34;;;;;;;13.30;2.22;;;;;;;13.84;84.79;99915.06;6258755;22;20015;-73
2021/12/30 03:18:00;;;;;;;11.13;3.17;;;;;;;13.88;84.71;99905.09;6293410;22;20004;-74
2021/12/30 03:20:26;;;;;;;7.47;2.63;;;;;;;13.86;84.49;99918.34;6237210;22;20030;-74
2021/12/30 03:22:52;;;;;;;12.70;2.33;;;;;;;13.84;84.73;99931.56;6251609;22;20091;-73
2021/12/30 03:25:17;;;;;;;18.95;3.15;;;;;;;13.80;84.19;99903.88;6274884;22;20763;-75
2021/12/30 03:27:44;;;;;;;22.77;3.22;;;;;;;13.85;84.90;99916.72;6242365;22;20004;-74
2021/12/30 03:30:19;;;;;;;12.60;2.35;;;;;;;13.74;85.16;99905.88;6222051;22;20027;-74
2021/12/30 03:32:47;;;;;;;13.65;2.83;;;;;;;13.81;85.00;99910.97;6269571;22;20014;-72
2021/12/30 03:35:16;;;;;;;26.08;4.03;;;;;;;13.78;84.82;99928.06;6220906;22;20027;-72
2021/12/30 03:37:42;;;;;;;12.35;3.35;;;;;;;13.73;85.24;99917.97;6280754;22;20330;-72
2021/12/30 03:40:12;;;;;;;9.77;2.38;;;;;;;13.76;84.96;99930.31;6256086;22;20030;-72
2021/12/30 03:42:37;;;;;;;21.88;3.28;;;;;;;13.77;84.97;99934.69;6255884;22;20065;-73
2021/12/30 03:45:07;;;;;;;10.88;2.55;;;;;;;13.85;84.91;99934.00;6249346;22;20047;-74
2021/12/30 03:47:49;;;;;;;;;;;;;;;;;;;;;
2021/12/30 03:50:22;;;;;;;11.57;2.63;;;;;;;13.61;85.16;99907.47;6272717;22;20536;-73
2021/12/30 03:52:53;;;;;;;24.98;3.97;;;;;;;13.64;85.10;99928.03;6245246;22;20003;-73
2021/12/30 03:55:20;;;;;;;19.75;2.65;;;;;;;13.60;84.97;99913.25;6241646;22;20090;-73
2021/12/30 03:57:48;;;;;;;24.77;3.50;;;;;;;13.65;84.68;99918.66;6270301;22;20042;-73
2021/12/30 04:00:15;;;;;;;24.67;3.42;;;;;;;13.68;84.79;99929.06;6243426;22;20448;-73
2021/12/30 04:02:40;;;;;;;13.93;3.45;;;;;;;13.66;84.67;99934.03;6243559;22;20014;-73
2021/12/30 04:05:09;;;;;;;17.65;3.08;;;;;;;13.60;84.73;99988.22;6244287;22;20330;-73
2021/12/30 04:07:35;;;;;;;10.00;2.63;;;;;;;13.67;84.93;99926.59;6238128;22;20039;-73
2021/12/30 04:10:01;;;;;;;22.42;3.00;;;;;;;13.68;84.31;99926.31;6239217;22;19999;-72
2021/12/30 04:12:27;;;;;;;19.98;3.65;;;;;;;13.62;84.45;99924.75;6242415;22;20012;-73
2021/12/30 04:15:11;;;;;;;15.23;2.88;;;;;;;13.68;84.11;99929.06;6267767;22;20012;-73
2021/12/30 04:17:37;;;;;;;16.25;2.92;;;;;;;13.65;84.15;99929.63;6271660;22;20000;-73
2021/12/30 04:20:07;;;;;;;22.42;3.10;;;;;;;13.59;84.09;99914.34;6272282;22;20176;-73
2021/12/30 04:22:36;;;;;;;12.38;2.63;;;;;;;13.68;83.88;99914.50;6217794;22;20016;-73
2021/12/30 04:25:03;;;;;;;16.33;3.63;;;;;;;13.63;83.60;99920.91;6272254;22;20364;-72
2021/12/30 04:27:29;;;;;;;17.45;3.55;;;;;;;13.66;83.68;99908.50;6268391;22;20053;-73
2021/12/30 04:29:54;;;;;;;19.83;3.08;;;;;;;13.73;83.58;99919.94;6241312;22;20011;-73
2021/12/30 04:32:19;;;;;;;12.13;2.83;;;;;;;13.76;83.27;99942.09;6242917;22;20011;-73
2021/12/30 04:34:47;;;;;;;11.63;2.78;;;;;;;13.75;83.42;99934.97;6268201;22;20004;-73
2021/12/30 04:37:13;;;;;;;9.80;2.53;;;;;;;13.82;82.88;99933.81;6216909;22;20039;-72
2021/12/30 04:39:38;;;;;;;21.00;2.97;;;;;;;13.81;82.83;99935.72;6267692;22;20007;-74
2021/12/30 04:42:04;;;;;;;17.23;3.40;;;;;;;13.83;82.86;99946.41;6217623;22;20006;-73
2021/12/30 04:44:30;;;;;;;19.25;3.60;;;;;;;13.79;82.89;99952.50;6270791;22;20010;-73
2021/12/30 04:46:57;;;;;;;9.65;2.78;;;;;;;13.81;82.87;99943.97;6262143;22;20014;-72
2021/12/30 04:49:24;;;;;;;11.27;3.00;;;;;;;13.86;82.99;99954.06;6218985;22;20039;-72
2021/12/30 04:51:50;;;;;;;22.17;3.63;;;;;;;13.77;83.32;99949.25;6271959;22;20011;-72
2021/12/30 04:54:16;;;;;;;11.65;2.50;;;;;;;13.68;83.67;99945.56;6270494;22;20099;-73
2021/12/30 04:56:42;;;;;;;18.05;3.35;;;;;;;13.68;84.22;99948.31;6240096;22;20020;-72
2021/12/30 04:59:07;;;;;;;13.43;2.65;;;;;;;13.68;83.50;99945.56;6242635;22;20085;-72
2021/12/30 05:01:33;;;;;;;12.40;2.55;;;;;;;13.54;84.20;99928.19;6269184;22;20014;-72
2021/12/30 05:03:58;;;;;;;11.32;2.78;;;;;;;13.66;84.04;99955.19;6242959;22;20007;-72
2021/12/30 05:06:24;;;;;;;10.80;2.53;;;;;;;13.71;83.84;99950.44;6238866;22;20007;-73
2021/12/30 05:08:49;;;;;;;18.83;2.92;;;;;;;13.64;84.10;99969.25;6241149;22;20008;-72
2021/12/30 05:11:17;;;;;;;19.02;3.55;;;;;;;13.68;84.45;99951.06;6244837;22;20078;-72
2021/12/30 05:13:42;;;;;;;20.55;2.85;;;;;;;13.65;84.27;99957.13;6269639;22;20007;-72
2021/12/30 05:16:08;;;;;;;15.68;2.67;;;;;;;13.60;84.66;99965.44;6193666;22;20008;-72
2021/12/30 05:18:34;;;;;;;13.95;2.75;;;;;;;13.64;84.30;99961.00;6240643;22;20358;-72
2021/12/30 05:21:01;;;;;;;10.43;2.42;;;;;;;13.68;84.37;99972.19;6243137;22;20004;-73
2021/12/30 05:23:28;;;;;;;11.05;2.10;;;;;;;13.74;84.03;99968.25;6269919;22;20000;-73
2021/12/30 05:25:54;;;;;;;17.08;2.10;;;;;;;13.72;84.57;99974.03;6271070;22;20090;-73
2021/12/30 05:28:22;;;;;;;11.50;2.25;;;;;;;13.66;84.00;99967.00;6242982;22;20035;-72
2021/12/30 05:30:48;;;;;;;12.80;2.47;;;;;;;13.76;84.06;99986.06;6241408;22;20492;-73
2021/12/30 05:33:16;;;;;;;16.27;3.00;;;;;;;13.78;84.06;99989.38;6269057;22;20003;-72
2021/12/30 05:35:42;;;;;;;11.18;2.05;;;;;;;13.77;83.78;99982.22;6269510;22;20007;-73
2021/12/30 05:38:08;;;;;;;10.10;1.58;;;;;;;13.78;83.73;99985.78;6241849;22;20054;-73
2021/12/30 05:40:34;;;;;;;16.50;2.50;;;;;;;13.82;83.51;99966.78;6217961;22;20532;-72
2021/12/30 05:43:01;;;;;;;9.88;1.67;;;;;;;13.82;83.09;99973.09;6269503;22;20050;-73
2021/12/30 05:45:29;;;;;;;8.50;1.42;;;;;;;13.89;83.20;99978.22;6241685;22;20437;-72
2021/12/30 05:47:55;;;;;;;13.75;2.25;;;;;;;13.82;82.96;99981.31;6239675;22;20035;-74
2021/12/30 05:50:25;;;;;;;11.45;2.28;;;;;;;13.81;83.10;99970.63;6242733;22;20052;-72
2021/12/30 05:52:51;;;;;;;13.57;2.08;;;;;;;13.87;83.12;99988.66;6270507;22;20009;-72
2021/12/30 05:55:17;;;;;;;13.82;2.70;;;;;;;13.89;82.64;99983.72;6242539;22;20621;-71
2021/12/30 05:57:44;;;;;;;9.07;1.83;;;;;;;13.87;82.77;99974.94;6243506;22;20015;-72
2021/12/30 06:00:13;;;;;;;6.72;1.98;;;;;;;13.94;82.66;99991.84;6241018;22;20023;-72
2021/12/30 06:02:39;;;;;;;7.70;1.65;;;;;;;13.90;82.40;99985.31;6268419;22;20000;-73
2021/12/30 06:05:07;;;;;;;14.02;2.38;;;;;;;13.83;82.78;99962.91;6265353;22;20022;-72
2021/12/30 06:07:35;;;;;;;8.70;1.90;;;;;;;13.88;82.63;99976.56;6219561;22;20012;-72
2021/12/30 06:10:01;;;;;;;7.80;1.95;;;;;;;13.94;82.33;99978.13;6269184;22;20027;-73
2021/12/30 06:12:26;;;;;;;6.35;1.83;;;;;;;13.94;82.37;99980.88;6243053;22;20010;-73
2021/12/30 06:14:52;;;;;;;7.57;1.70;;;;;;;13.94;82.41;100000.09;6242621;22;20094;-73
2021/12/30 06:17:17;;;;;;;9.25;2.45;;;;;;;13.94;82.39;99992.69;6271263;22;20018;-73
2021/12/30 06:19:46;;;;;;;5.55;1.40;;;;;;;13.95;82.63;100001.75;6272988;22;20003;-73
2021/12/30 06:22:13;;;;;;;10.35;1.83;;;;;;;13.91;82.40;99992.47;6218302;22;20493;-75
2021/12/30 06:24:43;;;;;;;19.95;3.88;;;;;;;13.84;82.65;99997.50;6274046;22;20113;-73
2021/12/30 06:27:10;;;;;;;12.55;1.77;;;;;;;13.93;82.63;99980.06;6271379;22;20007;-72
2021/12/30 06:29:47;;;;;;;;;;;;;;;;;;;;;
2021/12/30 06:32:15;;;;;;;3.33;1.05;;;;;;;13.91;82.37;99997.97;6289405;22;20007;-74
2021/12/30 06:34:45;;;;;;;8.57;2.15;;;;;;;14.07;82.07;99998.53;6282699;22;20641;-76
2021/12/30 06:37:11;;;;;;;4.45;1.52;;;;;;;14.00;82.53;100012.66;6277190;22;20010;-75
2021/12/30 06:39:37;;;;;;;11.20;1.23;;;;;;;13.93;83.00;99996.53;6247495;22;20367;-74
2021/12/30 06:42:03;;;;;;;13.40;1.42;;;;;;;13.87;82.95;99996.91;6273821;22;20042;-73
2021/12/30 06:44:29;;;;;;;1.33;0.75;;;;;;;13.90;83.26;100018.31;6245043;22;20026;-73
2021/12/30 06:46:58;;;;;;;5.25;1.00;;;;;;;13.88;83.08;100015.03;6272959;22;20003;-74
2021/12/30 06:50:00;;;;;;;7.03;1.40;;;;;;;13.94;83.08;100013.84;6274251;22;20015;-74
2021/12/30 06:53:01;;;;;;;;;;;;;;;;;;;;;
2021/12/30 06:55:42;;;;;;;;;;;;;;;;;;;;;
2021/12/30 07:26:04;;;;;;;;;;;;;;;;;;;;;
2021/12/30 07:29:32;;;;;;;;;;;;;;;;;;;;;
2021/12/30 07:32:48;;;;;;;;;;;;;;;;;;;;;
2021/12/30 07:54:19;;;;;;;;;;;;;;;;;;;;;
2021/12/30 07:57:33;;;;;;;9.20;2.10;;;;;;;14.29;81.70;100064.72;5871883;24;20104;-72
2021/12/30 08:07:52;;;;;;;;;;;;;;;;;;;;;
2021/12/30 08:18:19;;;;;;;;;;;;;;;;;;;;;
2021/12/30 08:32:54;;;;;;;16.52;3.30;;;;;;;13.99;83.26;100071.50;5879633;24;20286;-72
2021/12/30 08:35:22;;;;;;;10.18;1.70;;;;;;;13.95;83.76;100064.97;5910656;24;20104;-76
2021/12/30 08:37:48;;;;;;;6.22;1.73;;;;;;;13.99;84.01;100071.50;5976940;23;20011;-72
2021/12/30 08:40:15;;;;;;;9.63;2.22;;;;;;;14.12;83.80;100081.75;6157216;22;20091;-70
2021/12/30 08:42:48;;;;;;;7.43;1.85;;;;;;;14.17;83.36;100093.78;6264441;22;20004;-71
2021/12/30 08:45:16;;;;;;;7.82;1.65;;;;;;;14.12;83.33;100069.94;6242866;22;20407;-72
2021/12/30 08:47:45;;;;;;;6.60;1.23;;;;;;;14.11;83.59;100088.34;6268112;22;20003;-72
2021/12/30 08:50:13;;;;;;;4.57;1.30;;;;;;;14.11;83.60;100085.59;6269040;22;20603;-72
2021/12/30 08:52:45;;;;;;;5.47;1.38;;;;;;;14.14;83.21;100089.69;6244780;22;20341;-71
2021/12/30 08:55:11;;;;;;;8.88;1.40;;;;;;;14.17;83.50;100104.78;6241934;22;20107;-72
2021/12/30 08:57:40;;;;;;;7.55;1.52;;;;;;;14.17;83.46;100104.78;6269152;22;20125;-72
2021/12/30 09:00:19;;;;;;;;;;;;;;;;;;;;;
2021/12/30 09:02:50;;;;;;;6.75;1.38;;;;;;;14.12;83.30;100114.75;6271703;22;20078;-73
2021/12/30 09:05:18;;;;;;;12.10;1.92;;;;;;;14.11;83.55;100118.59;6238436;22;20007;-73
2021/12/30 09:07:44;;;;;;;6.05;1.40;;;;;;;14.09;83.53;100131.84;6270848;22;20007;-72
2021/12/30 09:10:15;;;;;;;18.90;2.97;;;;;;;14.00;84.19;100114.34;6241271;22;20018;-72
2021/12/30 09:12:48;;;;;;;6.55;1.38;;;;;;;14.06;83.96;100115.09;6265952;22;20149;-73
2021/12/30 09:15:16;;;;;;;6.97;1.63;;;;;;;14.02;83.87;100101.16;6242102;22;20422;-72
2021/12/30 09:17:53;;;;;;;12.90;1.30;;;;;;;14.05;84.32;100097.81;6268909;22;20031;-74
2021/12/30 09:20:19;;;;;;;10.18;0.93;;;;;;;13.98;83.80;100108.34;6243762;22;20007;-72
2021/12/30 09:22:45;;;;;;;10.70;1.60;;;;;;;13.93;84.46;100111.16;6270854;22;20010;-72
2021/12/30 09:25:12;;;;;;;10.52;1.30;;;;;;;14.00;84.36;100119.84;6246214;22;20040;-73
2021/12/30 09:27:45;;;;;;;3.40;1.17;;;;;;;14.04;83.97;100109.91;6271969;22;20119;-72
2021/12/30 09:30:12;;;;;;;2.58;0.95;;;;;;;14.19;84.01;100124.56;6247268;22;20033;-73
2021/12/30 09:32:39;;;;;;;6.32;0.90;;;;;;;14.21;83.64;100138.84;6219425;22;20094;-72
2021/12/30 09:35:06;;;;;;;9.48;0.88;;;;;;;14.26;83.28;100130.50;6246040;22;20041;-74
2021/12/30 09:37:31;;;;;;;6.63;1.80;;;;;;;14.29;82.88;100135.41;6270639;22;20027;-72
2021/12/30 09:39:59;;;;;;;6.47;1.90;;;;;;;14.35;83.18;100161.69;6217807;22;20015;-73
2021/12/30 09:42:24;;;;;;;6.47;1.13;;;;;;;14.53;82.50;100139.97;6216896;22;20008;-73
2021/12/30 09:44:53;;;;;;;4.85;0.85;;;;;;;14.58;82.39;100142.66;6219555;22;20315;-73
2021/12/30 09:47:19;;;;;;;8.45;0.88;;;;;;;14.62;81.89;100149.25;6273242;22;20076;-73
2021/12/30 09:49:45;;;;;;;3.42;1.05;;;;;;;14.45;81.43;100128.53;6270268;22;20035;-72
2021/12/30 09:52:15;;;;;;;6.25;1.10;;;;;;;14.54;81.14;100138.88;6219281;22;20011;-74
2021/12/30 09:54:40;;;;;;;4.38;1.02;;;;;;;14.43;81.24;100130.78;6272087;22;20512;-74
2021/12/30 09:57:06;;;;;;;11.13;1.38;;;;;;;14.57;81.11;100157.53;6246871;22;20008;-73
2021/12/30 09:59:32;;;;;;;3.05;0.77;;;;;;;14.56;81.39;100167.72;6246734;22;20426;-72
2021/12/30 10:10:02;;;;;;;3.08;1.02;;;;;;;14.38;81.08;100202.38;6122770;23;20021;-73
2021/12/30 10:20:24;;;;;;;;;;;;;;;;;;;;;
2021/12/30 10:23:32;;;;;;;1.75;0.50;;;;;;;14.46;81.58;100185.19;6063575;23;20098;-73
2021/12/30 10:30:05;;;;;;;4.78;0.32;;;;;;;14.60;81.07;100189.94;6091401;23;20010;-73
2021/12/30 10:33:08;;;;;;;9.85;0.60;;;;;;;14.63;80.63;100195.72;6047315;23;20427;-73
2021/12/30 10:43:23;;;;;;;;;;;;;;;;;;;;;
2021/12/30 11:03:58;;;;;;;;;;;;;;;;;;;;;
2021/12/30 11:06:56;;;;;;;4.43;0.85;;;;;;;15.17;78.13;100178.84;6065924;23;20082;-72
2021/12/30 12:34:41;;;;;;;12.98;2.00;;;;;;;14.72;80.94;100187.59;6272784;22;20023;-74
2021/12/30 12:37:37;;;;;;;5.90;1.83;;;;;;;14.71;80.70;100174.94;6247419;22;20426;-74
2021/12/30 12:54:35;;;;;;;14.57;3.45;;;;;;;14.11;84.01;100173.59;6121502;23;20017;-74
2021/12/30 13:00:59;;;;;;;;;;;;;;;;;;;;;
2021/12/30 13:04:23;;;;;;;;;;;;;;;;;;;;;
2021/12/30 13:06:55;;;;;;;14.25;3.15;;;;;;;13.78;85.58;100168.00;5997630;23;20100;-75
2021/12/30 13:09:32;;;;;;;;;;;;;;;;;;;;;
2021/12/30 13:12:45;;;;;;;;;;;;;;;;;;;;;
2021/12/30 13:15:38;;;;;;;26.90;3.80;;;;;;;13.74;86.09;100191.66;6236944;22;20540;-74
2021/12/30 13:18:32;;;;;;;;;;;;;;;;;;;;;
2021/12/30 13:31:57;;;;;;;16.88;3.13;;;;;;;13.97;86.10;100197.41;6117301;23;20029;-75
2021/12/30 13:34:57;;;;;;;18.42;3.33;;;;;;;13.85;86.26;100199.78;6047864;23;20014;-73
2021/12/30 13:37:55;;;;;;;;;;;;;;;;;;;;;
2021/12/30 13:40:42;;;;;;;;;;;;;;;;;;;;;
2021/12/30 13:43:17;;;;;;;15.52;1.88;;;;;;;13.94;85.89;100207.09;6097190;23;20085;-75
2021/12/30 13:49:58;;;;;;;;;;;;;;;;;;;;;
2021/12/30 14:07:47;;;;;;;;;;;;;;;;;;;;;
2021/12/30 14:10:38;;;;;;;8.00;1.25;;;;;;;13.60;85.73;100220.94;5924502;23;20091;-74
2021/12/30 14:13:35;;;;;;;5.97;1.77;;;;;;;13.71;85.34;100214.25;5983626;23;20011;-74
2021/12/30 14:16:34;;;;;;;7.90;1.40;;;;;;;13.68;84.93;100203.84;6002905;23;20019;-73
2021/12/30 14:23:23;;;;;;;;;;;;;;;;;;;;;
2021/12/30 14:33:44;;;;;;;;;;;;;;;;;;;;;
2021/12/30 14:50:33;;;;;;;15.68;2.15;;;;;;;13.55;85.65;100259.44;6101324;23;20034;-73
2021/12/30 14:53:20;;;;;;;;;;;;;;;;;;;;;
2021/12/30 14:59:41;;;;;;;;;;;;;;;;;;;;;
2021/12/30 15:02:47;;;;;;;;;;;;;;;;;;;;;
2021/12/30 15:09:20;;;;;;;18.35;2.47;;;;;;;13.51;85.43;100242.75;6009790;23;20011;-73
2021/12/30 15:30:39;;;;;;;;;;;;;;;;;;;;;
2021/12/30 15:33:08;;;;;;;16.40;2.63;;;;;;;13.46;85.62;100266.69;5766742;24;20070;-74
2021/12/30 15:35:37;;;;;;;15.55;2.08;;;;;;;13.47;85.19;100280.13;5821563;24;20034;-75
2021/12/30 15:38:03;;;;;;;13.80;2.85;;;;;;;13.49;85.09;100271.59;5982797;23;20216;-76
2021/12/30 15:40:30;;;;;;;15.18;2.28;;;;;;;13.43;85.05;100274.41;6212789;23;20078;-76
2021/12/30 15:43:29;;;;;;;;;;;;;;;;;;;;;
2021/12/30 15:46:51;;;;;;;;;;;;;;;;;;;;;
2021/12/30 15:49:36;;;;;;;;;;;;;;;;;;;;;
2021/12/30 15:52:05;;;;;;;10.32;1.98;;;;;;;13.30;85.04;100286.00;6248745;23;20387;-76
2021/12/30 15:54:34;;;;;;;13.02;1.48;;;;;;;13.18;84.84;100263.59;6220298;23;20326;-75
2021/12/30 15:57:42;;;;;;;6.80;1.23;;;;;;;13.31;84.52;100282.16;6220146;23;20031;-75
2021/12/30 16:00:22;;;;;;;7.68;0.98;;;;;;;13.36;84.71;100276.66;6230162;23;20007;-75
2021/12/30 16:03:31;;;;;;;7.88;1.45;;;;;;;13.40;84.51;100285.13;6202263;23;20714;-77
2021/12/30 16:06:02;;;;;;;9.13;1.77;;;;;;;13.36;83.99;100276.66;6242644;23;20450;-77
2021/12/30 16:08:40;;;;;;;;;;;;;;;;;;;;;
2021/12/30 16:11:17;;;;;;;7.13;2.28;;;;;;;13.49;83.75;100293.56;6244591;23;20039;-77
2021/12/30 16:14:10;;;;;;;12.15;1.60;;;;;;;13.46;83.53;100280.44;6248444;23;20474;-76
2021/12/30 16:24:07;;;;;;;;;;;;;;;;;;;;;
2021/12/30 16:30:14;;;;;;;19.85;2.88;;;;;;;12.99;86.24;100280.75;5980714;24;20036;-73
2021/12/30 16:35:29;;;;;;;7.18;1.92;;;;;;;12.91;87.36;100289.63;6100635;23;20418;-74
2021/12/30 16:38:02;;;;;;;15.00;2.33;;;;;;;12.88;87.75;100285.53;6200785;22;20035;-75
2021/12/30 16:40:32;;;;;;;8.25;1.20;;;;;;;12.84;88.28;100280.88;6248775;22;20034;-73
2021/12/30 16:42:57;;;;;;;7.78;1.42;;;;;;;12.83;88.24;100292.97;6273973;22;20675;-74
2021/12/30 16:45:25;;;;;;;5.50;1.17;;;;;;;12.85;88.20;100312.69;6226000;22;20062;-74
2021/12/30 16:47:51;;;;;;;4.82;0.80;;;;;;;12.96;88.39;100297.81;6251242;22;20075;-73
2021/12/30 16:50:17;;;;;;;8.80;2.13;;;;;;;12.89;88.58;100297.31;6250574;22;20007;-73
2021/12/30 16:53:31;;;;;;;9.68;1.30;;;;;;;12.83;88.57;100315.72;6276860;22;20049;-73
2021/12/30 16:57:00;;;;;;;;;;;;;;;;;;;;;
2021/12/30 17:07:05;;;;;;;;;;;;;;;;;;;;;
2021/12/30 17:14:02;;;;;;;;;;;;;;;;;;;;;
2021/12/30 17:17:30;;;;;;;;;;;;;;;;;;;;;
2021/12/30 17:41:47;;;;;;;10.38;1.50;;;;;;;13.17;86.13;100287.50;5841976;24;20121;-72
2021/12/30 18:01:54;;;;;;;12.35;1.73;;;;;;;13.04;85.79;100316.44;5871970;24;20064;-77
2021/12/30 18:08:50;;;;;;;8.73;1.50;;;;;;;12.97;86.27;100321.41;5874646;24;20024;-73
2021/12/30 18:12:31;;;;;;;;;;;;;;;;;;;;;
2021/12/30 18:18:46;;;;;;;16.67;3.30;;;;;;;12.88;85.22;100317.63;5849538;24;20014;-73
2021/12/30 18:21:49;;;;;;;11.05;2.28;;;;;;;13.03;84.95;100314.78;5848422;24;20018;-72
2021/12/30 18:24:28;;;;;;;18.48;2.00;;;;;;;12.96;85.17;100319.75;5876793;24;20473;-73
2021/12/30 18:27:36;;;;;;;8.38;2.00;;;;;;;12.99;85.00;100313.69;5957605;23;20313;-73
2021/12/30 18:30:21;;;;;;;11.63;1.90;;;;;;;12.87;86.19;100326.97;6012344;23;20063;-73
2021/12/30 18:33:30;;;;;;;;;;;;;;;;;;;;;
2021/12/30 18:37:02;;;;;;;10.50;2.65;;;;;;;12.86;85.62;100304.16;6086024;23;20029;-73
2021/12/30 18:39:34;;;;;;;12.50;1.55;;;;;;;12.85;85.15;100290.75;6247798;23;20066;-73
2021/12/30 18:42:31;;;;;;;;;;;;;;;;;;;;;
2021/12/30 18:45:03;;;;;;;7.25;2.05;;;;;;;12.91;85.09;100284.13;6241238;22;20000;-73
2021/12/30 18:48:08;;;;;;;;;;;;;;;;;;;;;
2021/12/30 18:53:37;;;;;;;8.23;1.55;;;;;;;12.74;86.01;100292.75;6183885;23;20008;-76
2021/12/30 18:56:30;;;;;;;16.55;2.22;;;;;;;12.93;85.96;100326.63;6247749;23;20322;-77
2021/12/30 18:59:05;;;;;;;;;;;;;;;;;;;;;
2021/12/30 19:02:35;;;;;;;;;;;;;;;;;;;;;
2021/12/30 19:05:22;;;;;;;12.85;2.03;;;;;;;12.59;87.51;100293.66;6257523;23;20016;-76
2021/12/30 19:08:06;;;;;;;9.70;1.85;;;;;;;12.68;87.33;100330.34;6231944;23;20020;-74
2021/12/30 19:10:42;;;;;;;;;;;;;;;;;;;;;
2021/12/30 19:13:13;;;;;;;20.35;2.38;;;;;;;12.69;87.20;100321.03;6252977;23;20015;-73
2021/12/30 19:16:04;;;;;;;14.57;2.78;;;;;;;12.69;87.15;100321.03;6254850;23;20004;-73
2021/12/30 19:18:36;;;;;;;20.90;2.65;;;;;;;12.71;87.74;100323.50;6255564;23;20008;-72
2021/12/30 19:21:12;;;;;;;14.80;2.50;;;;;;;12.75;87.25;100313.59;6253713;22;20000;-71
2021/12/30 19:23:43;;;;;;;18.17;3.42;;;;;;;12.64;87.18;100303.78;6253762;22;20051;-72
2021/12/30 19:26:19;;;;;;;17.88;3.35;;;;;;;12.74;86.81;100306.47;6250556;22;20385;-72